FNMA

Malanje

Malanje, Angola
METAR FNMA 161400Z 06005KT 9999 BKN007 SCT057 26/23 Q1013
Observed Flight Rules
Dec-16 @ 14:00 UTC (13 hours ago) Instrument Flight Rules
Wind Visibility Clouds
60° at 5 knots 10,000+ meters
  • Broken at 700' AGL
  • Scattered at 5,700' AGL
Temperatures Readings
Current 26°C / 79°F
Dewpoint 23°C / 73°F
Humidity 84%
Altimeter 29.91" Hg
Pressure 1013 hPa
Elevation 1173
METAR FNMA 161400Z 06005KT 9999 BKN007 SCT057 26/23 Q1013
Observed Flight Rules
Dec-16 @ 14:00 UTC
(13 hours ago)
IFR
Wind Visibility
60° at 5 knots 10,000+ meters
Clouds
  • Broken at 700' AGL
  • Scattered at 5,700' AGL
Temperature Dewpoint
26°C / 79°F 23°C / 73°F
Humidity Altimeter Pressure
84% 29.91" Hg 1013 hPa